createdAt,value
2023-04-13T00:00:09.405Z,7.60
2023-04-13T00:02:39.299Z,6.75
2023-04-13T00:05:09.828Z,8.77
2023-04-13T00:07:40.056Z,7.57
2023-04-13T00:10:08.777Z,8.13
2023-04-13T00:12:38.768Z,7.43
2023-04-13T00:15:09.386Z,6.55
2023-04-13T00:17:37.906Z,7.88
2023-04-13T00:20:09.815Z,8.38
2023-04-13T00:22:38.994Z,6.53
2023-04-13T00:25:06.385Z,6.97
2023-04-13T00:27:33.043Z,7.18
2023-04-13T00:29:59.821Z,7.75
2023-04-13T00:32:26.776Z,6.80
2023-04-13T00:34:53.469Z,6.47
2023-04-13T00:37:23.953Z,6.90
2023-04-13T00:39:51.818Z,8.77
2023-04-13T00:42:21.689Z,6.07
2023-04-13T00:44:48.855Z,8.02
2023-04-13T00:47:18.897Z,7.03
2023-04-13T00:49:47.730Z,7.80
2023-04-13T00:52:14.658Z,6.00
2023-04-13T00:54:43.549Z,7.38
2023-04-13T00:57:12.382Z,6.28
2023-04-13T00:59:39.320Z,7.10
2023-04-13T01:02:08.377Z,6.60
2023-04-13T01:04:37.882Z,6.93
2023-04-13T01:07:27.473Z,7.05
2023-04-13T01:10:12.490Z,6.40
2023-04-13T01:12:56.832Z,6.00
2023-04-13T01:15:25.658Z,6.18
2023-04-13T01:18:00.612Z,7.18
2023-04-13T01:20:32.553Z,6.60
2023-04-13T01:23:01.418Z,6.03
2023-04-13T01:25:40.886Z,5.97
2023-04-13T01:28:09.390Z,6.25
2023-04-13T01:30:42.168Z,6.03
2023-04-13T01:33:09.760Z,6.05
2023-04-13T01:35:37.156Z,5.88
2023-04-13T01:38:07.134Z,6.15
2023-04-13T01:40:37.030Z,5.68
2023-04-13T01:43:08.533Z,6.88
2023-04-13T01:45:47.622Z,5.15
2023-04-13T01:48:52.309Z,5.85
2023-04-13T01:51:20.357Z,6.20
2023-04-13T01:53:49.208Z,6.05
2023-04-13T01:56:17.948Z,5.32
2023-04-13T01:58:44.566Z,6.65
2023-04-13T02:01:11.255Z,5.13
2023-04-13T02:03:43.282Z,7.65
2023-04-13T02:06:10.569Z,5.28
2023-04-13T02:08:42.450Z,5.25
2023-04-13T02:11:13.770Z,5.00
2023-04-13T02:13:44.539Z,5.60
2023-04-13T02:16:13.640Z,5.20
2023-04-13T02:18:42.584Z,5.10
2023-04-13T02:21:09.695Z,5.32
2023-04-13T02:23:37.127Z,5.65
2023-04-13T02:26:08.462Z,5.75
2023-04-13T02:28:40.331Z,5.78
2023-04-13T02:31:12.016Z,5.25
2023-04-13T02:33:39.892Z,4.88
2023-04-13T02:36:07.060Z,5.30
2023-04-13T02:38:37.325Z,5.60
2023-04-13T02:41:04.166Z,6.10
2023-04-13T02:43:36.035Z,6.30
2023-04-13T02:46:05.610Z,5.50
2023-04-13T02:48:37.051Z,5.43
2023-04-13T02:51:03.993Z,5.93
2023-04-13T02:53:30.741Z,5.28
2023-04-13T02:55:57.468Z,4.65
2023-04-13T02:58:26.763Z,4.78
2023-04-13T03:00:53.445Z,4.85
2023-04-13T03:03:20.518Z,5.32
2023-04-13T03:05:50.755Z,4.97
2023-04-13T03:08:17.470Z,5.28
2023-04-13T03:10:45.008Z,4.97
2023-04-13T03:13:16.377Z,4.70
2023-04-13T03:15:43.064Z,6.05
2023-04-13T03:18:09.745Z,6.57
2023-04-13T03:20:38.837Z,5.88
2023-04-13T03:23:10.695Z,5.03
2023-04-13T03:25:37.375Z,5.47
2023-04-13T03:28:07.131Z,4.78
2023-04-13T03:30:38.937Z,6.55
2023-04-13T03:33:07.763Z,5.40
2023-04-13T03:35:34.448Z,4.97
2023-04-13T03:38:04.325Z,6.60
2023-04-13T03:40:33.659Z,8.48
2023-04-13T03:43:05.605Z,7.93
2023-04-13T03:45:34.557Z,5.10
2023-04-13T03:48:01.342Z,9.55
2023-04-13T03:50:32.828Z,6.15
2023-04-13T03:53:04.129Z,7.53
2023-04-13T03:55:32.964Z,6.35
2023-04-13T03:57:59.660Z,6.38
2023-04-13T04:00:28.965Z,5.20
2023-04-13T04:02:57.911Z,7.32
2023-04-13T04:05:24.868Z,7.43
2023-04-13T04:07:51.562Z,8.63
2023-04-13T04:10:19.352Z,4.82
2023-04-13T04:12:46.060Z,5.80
2023-04-13T04:15:12.768Z,12.93
2023-04-13T04:17:40.128Z,12.02
2023-04-13T04:20:07.870Z,24.63
2023-04-13T04:22:35.168Z,16.80
2023-04-13T04:28:02.458Z,9.48
2023-04-13T04:30:33.900Z,8.00
2023-04-13T04:33:05.257Z,9.00
2023-04-13T04:35:37.339Z,8.40
2023-04-13T04:38:06.600Z,8.82
2023-04-13T04:40:38.439Z,11.73
2023-04-13T04:43:07.804Z,9.48
2023-04-13T04:45:36.330Z,8.70
2023-04-13T04:48:04.275Z,9.35
2023-04-13T04:50:31.126Z,6.88
2023-04-13T04:53:02.824Z,8.65
2023-04-13T04:55:31.923Z,7.85
2023-04-13T04:57:58.595Z,7.95
2023-04-13T05:00:30.411Z,6.43
2023-04-13T05:02:57.917Z,7.68
2023-04-13T05:05:25.516Z,6.20
2023-04-13T05:07:52.259Z,6.85
2023-04-13T05:10:21.133Z,8.55
2023-04-13T05:12:49.968Z,7.15
2023-04-13T05:15:16.850Z,7.63
2023-04-13T05:17:46.760Z,7.78
2023-04-13T05:20:16.243Z,5.97
2023-04-13T05:22:43.023Z,7.68
2023-04-13T05:25:12.831Z,6.72
2023-04-13T05:27:41.696Z,8.00
2023-04-13T05:30:11.029Z,7.28
2023-04-13T05:32:39.864Z,7.38
2023-04-13T05:35:07.147Z,6.70
2023-04-13T05:37:33.786Z,6.57
2023-04-13T05:40:00.497Z,7.80
2023-04-13T05:42:30.169Z,7.07
2023-04-13T05:44:56.935Z,7.28
2023-04-13T05:47:24.177Z,6.18
2023-04-13T05:49:53.083Z,5.32
2023-04-13T05:52:20.924Z,7.30
2023-04-13T05:54:49.942Z,6.47
2023-04-13T05:57:17.078Z,6.97
2023-04-13T05:59:46.753Z,7.88
2023-04-13T06:02:13.524Z,7.15
2023-04-13T06:04:43.600Z,7.80
2023-04-13T06:07:10.355Z,6.35
2023-04-13T06:09:36.982Z,5.88
2023-04-13T06:12:04.059Z,7.53
2023-04-13T06:14:32.930Z,7.05
2023-04-13T06:16:59.633Z,4.97
2023-04-13T06:19:29.115Z,7.63
2023-04-13T06:21:58.554Z,5.57
2023-04-13T06:24:25.351Z,6.70
2023-04-13T06:26:52.382Z,5.93
2023-04-13T06:29:21.287Z,6.80
2023-04-13T06:31:47.940Z,5.18
2023-04-13T06:34:14.745Z,6.15
2023-04-13T06:36:41.481Z,6.97
2023-04-13T06:39:09.462Z,5.55
2023-04-13T06:41:41.680Z,5.75
2023-04-13T06:44:08.763Z,5.00
2023-04-13T06:46:39.259Z,6.03
2023-04-13T06:49:08.087Z,5.87
2023-04-13T06:51:39.492Z,6.20
2023-04-13T06:54:06.645Z,6.20
2023-04-13T06:56:33.358Z,6.57
2023-04-13T06:59:02.855Z,6.90
2023-04-13T07:01:32.237Z,7.22
2023-04-13T07:04:04.305Z,8.05
2023-04-13T07:06:32.154Z,7.20
2023-04-13T07:09:03.618Z,7.35
2023-04-13T07:11:32.957Z,8.10
2023-04-13T07:14:02.180Z,6.60
2023-04-13T07:16:33.655Z,7.10
2023-04-13T07:19:02.786Z,7.05
2023-04-13T07:21:34.417Z,7.13
2023-04-13T07:24:03.536Z,7.97
2023-04-13T07:26:32.857Z,8.48
2023-04-13T07:28:59.696Z,8.00
2023-04-13T07:31:28.687Z,7.45
2023-04-13T07:33:57.613Z,8.13
2023-04-13T07:36:26.971Z,7.97
2023-04-13T07:38:53.637Z,7.78
2023-04-13T07:41:22.653Z,8.18
2023-04-13T07:43:51.693Z,8.98
2023-04-13T07:46:20.578Z,8.98
2023-04-13T07:48:51.979Z,10.50
2023-04-13T07:51:19.116Z,8.20
2023-04-13T07:53:45.886Z,10.15
2023-04-13T07:56:15.522Z,9.30
2023-04-13T07:58:44.514Z,8.32
2023-04-13T08:01:13.454Z,8.57
2023-04-13T08:03:40.352Z,8.30
2023-04-13T08:06:08.256Z,9.13
2023-04-13T08:08:37.295Z,11.32
2023-04-13T08:11:04.040Z,8.80
2023-04-13T08:13:30.797Z,9.60
2023-04-13T08:16:00.397Z,8.82
2023-04-13T08:18:32.138Z,10.05
2023-04-13T08:21:01.272Z,8.52
2023-04-13T08:23:32.797Z,8.75
2023-04-13T08:26:02.700Z,9.43
2023-04-13T08:28:32.600Z,9.48
2023-04-13T08:30:59.470Z,8.07
2023-04-13T08:33:28.399Z,8.75
2023-04-13T08:35:55.213Z,8.65
2023-04-13T08:38:24.065Z,9.27
2023-04-13T08:40:51.003Z,8.20
2023-04-13T08:43:23.397Z,9.15
2023-04-13T08:45:52.320Z,8.15
2023-04-13T08:48:23.460Z,8.18
2023-04-13T08:53:20.147Z,8.40
2023-04-13T08:55:47.044Z,10.18
2023-04-13T08:58:16.228Z,9.00
2023-04-13T09:00:43.477Z,8.30
2023-04-13T09:03:14.298Z,8.40
2023-04-13T09:08:17.136Z,8.70
2023-04-13T09:10:44.002Z,7.47
2023-04-13T09:13:12.919Z,8.43
2023-04-13T09:15:41.177Z,8.48
2023-04-13T09:18:11.533Z,7.72
2023-04-13T09:20:38.571Z,8.63
2023-04-13T09:23:17.062Z,8.40
2023-04-13T09:25:50.490Z,7.90
2023-04-13T09:28:20.383Z,8.20
2023-04-13T09:30:47.233Z,8.32
2023-04-13T09:33:18.144Z,7.03
2023-04-13T09:35:47.411Z,8.77
2023-04-13T09:38:16.177Z,7.07
2023-04-13T09:40:49.587Z,7.28
2023-04-13T09:43:17.265Z,8.15
2023-04-13T09:45:46.400Z,8.35
2023-04-13T09:48:24.573Z,7.97
2023-04-13T09:50:58.684Z,8.18
2023-04-13T09:53:29.357Z,7.70
2023-04-13T09:55:59.353Z,7.70
2023-04-13T09:58:26.544Z,7.00
2023-04-13T10:00:53.225Z,7.65
2023-04-13T10:03:22.431Z,7.53
2023-04-13T10:05:59.511Z,7.88
2023-04-13T10:08:38.046Z,6.95
2023-04-13T10:11:10.943Z,7.30
2023-04-13T10:13:43.758Z,6.93
2023-04-13T10:16:36.729Z,7.78
2023-04-13T10:19:25.122Z,7.50
2023-04-13T10:21:54.801Z,7.03
2023-04-13T10:24:24.016Z,6.68
2023-04-13T10:26:56.292Z,6.82
2023-04-13T10:29:29.900Z,7.75
2023-04-13T10:32:03.647Z,8.75
2023-04-13T10:34:32.007Z,8.15
2023-04-13T10:37:03.689Z,8.10
2023-04-13T10:39:37.776Z,8.30
2023-04-13T10:42:06.893Z,6.60
2023-04-13T10:44:50.572Z,6.78
2023-04-13T10:47:20.665Z,6.50
2023-04-13T10:49:48.551Z,7.47
2023-04-13T10:52:18.027Z,6.90
2023-04-13T10:54:49.309Z,8.40
2023-04-13T10:57:20.687Z,6.63
2023-04-13T10:59:57.876Z,6.40
2023-04-13T11:02:33.035Z,7.40
2023-04-13T11:05:00.514Z,6.40
2023-04-13T11:07:29.580Z,7.35
2023-04-13T11:12:29.208Z,6.10
2023-04-13T11:14:55.924Z,6.38
2023-04-13T11:17:25.383Z,6.00
2023-04-13T11:19:53.240Z,6.10
2023-04-13T11:22:23.764Z,6.07
2023-04-13T11:24:51.314Z,6.50
2023-04-13T11:27:21.195Z,6.60
2023-04-13T11:30:05.178Z,5.90
2023-04-13T11:32:40.185Z,6.50
2023-04-13T11:35:11.007Z,6.43
2023-04-13T11:37:45.774Z,6.13
2023-04-13T11:40:20.476Z,6.53
2023-04-13T11:42:53.377Z,6.65
2023-04-13T11:45:22.375Z,5.60
2023-04-13T11:47:52.444Z,6.60
2023-04-13T11:50:19.976Z,5.75
2023-04-13T11:52:49.286Z,6.85
2023-04-13T11:55:23.479Z,6.10
2023-04-13T11:57:51.376Z,5.80
2023-04-13T12:00:27.545Z,6.85
2023-04-13T12:03:02.287Z,5.72
2023-04-13T12:05:33.918Z,5.75
2023-04-13T12:16:01.292Z,5.65
2023-04-13T12:18:38.019Z,5.95
2023-04-13T12:21:10.017Z,5.78
2023-04-13T12:23:40.164Z,5.75
2023-04-13T12:26:33.207Z,5.40
2023-04-13T12:28:56.777Z,6.07
2023-04-13T12:31:26.005Z,5.63
2023-04-13T12:33:54.870Z,5.53
2023-04-13T12:36:21.848Z,5.82
2023-04-13T12:38:48.521Z,5.65
2023-04-13T12:41:15.187Z,5.50
2023-04-13T12:43:41.900Z,5.70
2023-04-13T12:46:11.645Z,5.30
2023-04-13T12:48:38.491Z,5.95
2023-04-13T12:51:08.562Z,5.90
2023-04-13T12:53:36.125Z,6.07
2023-04-13T12:56:04.922Z,6.15
2023-04-13T12:58:35.527Z,6.10
2023-04-13T13:01:02.923Z,5.32
2023-04-13T13:03:33.556Z,5.25
2023-04-13T13:06:00.325Z,5.50
2023-04-13T13:08:34.925Z,5.93
2023-04-13T13:11:03.597Z,5.60
2023-04-13T13:13:32.614Z,5.32
2023-04-13T13:16:04.110Z,5.57
2023-04-13T13:18:47.061Z,6.13
2023-04-13T13:21:17.391Z,5.80
2023-04-13T13:23:46.475Z,5.40
2023-04-13T13:28:48.252Z,5.25
2023-04-13T13:31:15.467Z,5.53
2023-04-13T13:33:45.091Z,5.68
2023-04-13T13:36:14.711Z,5.20
2023-04-13T13:38:47.414Z,5.25
2023-04-13T13:41:16.389Z,5.18
2023-04-13T13:43:43.019Z,5.70
2023-04-13T13:46:09.778Z,5.78
2023-04-13T13:48:36.570Z,6.00
2023-04-13T13:51:07.535Z,6.65
2023-04-13T13:53:34.465Z,4.88
2023-04-13T13:56:03.299Z,5.60
2023-04-13T13:58:29.997Z,5.97
2023-04-13T14:00:59.516Z,5.18
2023-04-13T14:03:30.979Z,5.28
2023-04-13T14:05:59.929Z,5.72
2023-04-13T14:08:28.815Z,5.78
2023-04-13T14:10:55.565Z,5.15
2023-04-13T14:13:24.391Z,5.00
2023-04-13T14:15:53.364Z,5.38
2023-04-13T14:18:24.008Z,5.07
2023-04-13T14:23:37.524Z,5.05
2023-04-13T14:26:07.468Z,6.03
2023-04-13T14:28:37.327Z,5.85
2023-04-13T14:31:04.379Z,5.88
2023-04-13T14:33:31.167Z,6.93
2023-04-13T14:35:57.861Z,5.93
2023-04-13T14:38:24.891Z,7.55
2023-04-13T14:40:51.888Z,7.28
2023-04-13T14:43:18.537Z,6.95
2023-04-13T14:45:45.251Z,7.00
2023-04-13T14:48:11.983Z,6.43
2023-04-13T14:50:43.914Z,7.43
2023-04-13T14:53:10.567Z,7.57
2023-04-13T14:55:37.731Z,8.18
2023-04-13T14:58:06.738Z,9.68
2023-04-13T15:00:39.194Z,8.05
2023-04-13T15:03:07.820Z,9.40
2023-04-13T15:05:41.619Z,6.68
2023-04-13T15:08:08.800Z,8.20
2023-04-13T15:10:35.493Z,9.80
2023-04-13T15:13:03.311Z,8.75
2023-04-13T15:15:34.569Z,7.97
2023-04-13T15:18:03.139Z,7.68
2023-04-13T15:20:32.385Z,7.97
2023-04-13T15:22:59.051Z,7.28
2023-04-13T15:25:25.865Z,7.32
2023-04-13T15:27:56.884Z,9.85
2023-04-13T15:30:34.874Z,8.82
2023-04-13T15:33:05.038Z,9.13
2023-04-13T15:35:36.393Z,8.30
2023-04-13T15:38:03.341Z,7.55
2023-04-13T15:40:32.993Z,8.20
2023-04-13T15:43:02.273Z,7.25
2023-04-13T15:45:31.440Z,8.43
2023-04-13T15:48:00.710Z,8.68
2023-04-13T15:50:28.176Z,8.80
2023-04-13T15:52:57.458Z,10.07
2023-04-13T15:55:26.794Z,9.45
2023-04-13T15:57:57.264Z,6.95
2023-04-13T16:00:24.820Z,8.63
2023-04-13T16:02:51.616Z,7.55
2023-04-13T16:05:21.084Z,8.38
2023-04-13T16:07:50.403Z,9.05
2023-04-13T16:10:19.250Z,8.75
2023-04-13T16:12:50.168Z,7.57
2023-04-13T16:15:17.132Z,7.68
2023-04-13T16:17:47.872Z,7.72
2023-04-13T16:20:21.232Z,7.47
2023-04-13T16:22:53.605Z,9.60
2023-04-13T16:25:22.431Z,8.05
2023-04-13T16:27:49.161Z,9.40
2023-04-13T16:30:17.696Z,9.70
2023-04-13T16:32:48.316Z,8.85
2023-04-13T16:35:14.981Z,8.35
2023-04-13T16:37:42.423Z,7.47
2023-04-13T16:40:12.695Z,8.73
2023-04-13T16:42:44.652Z,9.07
2023-04-13T16:45:15.082Z,8.90
2023-04-13T16:47:46.964Z,9.55
2023-04-13T16:50:15.789Z,9.75
2023-04-13T16:52:42.857Z,9.82
2023-04-13T16:55:14.255Z,9.85
2023-04-13T16:57:47.194Z,11.05
2023-04-13T17:00:18.273Z,10.23
2023-04-13T17:05:18.915Z,10.27
2023-04-13T17:07:47.867Z,10.57
2023-04-13T17:10:18.925Z,10.00
2023-04-13T17:12:48.233Z,9.55
2023-04-13T17:15:15.000Z,10.48
2023-04-13T17:17:41.968Z,10.10
2023-04-13T17:20:09.371Z,9.82
2023-04-13T17:22:38.284Z,11.60
2023-04-13T17:25:07.800Z,10.45
2023-04-13T17:27:34.410Z,11.38
2023-04-13T17:30:03.773Z,9.85
2023-04-13T17:32:30.686Z,12.70
2023-04-13T17:34:57.395Z,10.95
2023-04-13T17:37:24.471Z,10.95
2023-04-13T17:39:51.501Z,11.60
2023-04-13T17:42:22.956Z,10.57
2023-04-13T17:44:51.993Z,10.73
2023-04-13T17:47:18.614Z,10.27
2023-04-13T17:49:47.481Z,11.15
2023-04-13T17:52:14.078Z,10.80
2023-04-13T17:54:40.801Z,11.40
2023-04-13T17:57:07.821Z,13.25
2023-04-13T17:59:36.951Z,11.95
2023-04-13T18:02:05.864Z,11.07
2023-04-13T18:04:35.380Z,11.15
2023-04-13T18:07:04.672Z,10.65
2023-04-13T18:09:33.654Z,11.38
2023-04-13T18:12:02.428Z,10.52
2023-04-13T18:14:30.210Z,11.07
2023-04-13T18:16:56.902Z,11.68
2023-04-13T18:19:27.650Z,11.85
2023-04-13T18:21:56.519Z,11.43
2023-04-13T18:24:23.239Z,11.25
2023-04-13T18:26:52.213Z,11.95
2023-04-13T18:29:19.094Z,11.65
2023-04-13T18:31:45.933Z,10.82
2023-04-13T18:34:15.828Z,12.10
2023-04-13T18:36:49.709Z,11.07
2023-04-13T18:39:17.098Z,11.38
2023-04-13T18:41:48.518Z,12.63
2023-04-13T18:44:15.505Z,11.35
2023-04-13T18:46:42.229Z,11.70
2023-04-13T18:49:11.035Z,12.02
2023-04-13T18:51:37.797Z,11.48
2023-04-13T18:54:04.617Z,10.90
2023-04-13T18:56:31.288Z,11.30
2023-04-13T18:58:57.994Z,11.18
2023-04-13T19:01:24.767Z,11.40
2023-04-13T19:03:52.557Z,11.63
2023-04-13T19:06:20.159Z,12.02
2023-04-13T19:08:46.871Z,11.57
2023-04-13T19:11:16.083Z,11.88
2023-04-13T19:13:44.839Z,11.25
2023-04-13T19:16:13.771Z,11.73
2023-04-13T19:18:45.775Z,11.57
2023-04-13T19:21:12.499Z,11.60
2023-04-13T19:23:40.423Z,12.05
2023-04-13T19:26:09.635Z,12.00
2023-04-13T19:28:38.516Z,12.25
2023-04-13T19:31:07.382Z,12.02
2023-04-13T19:33:36.241Z,11.95
2023-04-13T19:36:09.388Z,12.43
2023-04-13T19:38:36.073Z,12.15
2023-04-13T19:41:04.990Z,12.13
2023-04-13T19:43:31.596Z,12.50
2023-04-13T19:45:58.284Z,12.43
2023-04-13T19:48:25.410Z,13.23
2023-04-13T19:50:54.234Z,12.25
2023-04-13T19:53:20.924Z,13.77
2023-04-13T19:55:47.628Z,13.98
2023-04-13T19:58:17.553Z,14.27
2023-04-13T20:00:47.322Z,14.50
2023-04-13T20:03:14.292Z,14.45
2023-04-13T20:05:43.240Z,14.02
2023-04-13T20:08:14.900Z,15.02
2023-04-13T20:10:44.698Z,15.73
2023-04-13T20:13:13.626Z,15.38
2023-04-13T20:15:42.517Z,17.20
2023-04-13T20:18:11.592Z,16.73
2023-04-13T20:20:42.475Z,16.42
2023-04-13T20:23:11.586Z,17.10
2023-04-13T20:25:41.984Z,18.00
2023-04-13T20:28:10.235Z,19.30
2023-04-13T20:30:40.052Z,19.17
2023-04-13T20:33:07.416Z,19.75
2023-04-13T20:35:34.367Z,19.35
2023-04-13T20:38:04.878Z,21.20
2023-04-13T20:40:36.116Z,21.43
2023-04-13T20:43:03.609Z,21.40
2023-04-13T20:45:32.433Z,21.80
2023-04-13T20:50:37.307Z,24.10
2023-04-13T20:53:08.906Z,21.88
2023-04-13T20:55:39.308Z,22.58
2023-04-13T20:58:08.200Z,18.03
2023-04-13T21:00:35.273Z,22.35
2023-04-13T21:03:04.315Z,23.17
2023-04-13T21:05:31.021Z,23.60
2023-04-13T21:07:57.682Z,23.65
2023-04-13T21:10:26.752Z,22.88
2023-04-13T21:12:55.558Z,23.20
2023-04-13T21:15:30.952Z,23.40
2023-04-13T21:17:57.654Z,22.85
2023-04-13T21:20:26.456Z,23.77
2023-04-13T21:22:55.400Z,23.08
2023-04-13T21:25:24.353Z,24.45
2023-04-13T21:27:53.465Z,23.92
2023-04-13T21:30:20.253Z,24.52
2023-04-13T21:32:49.148Z,22.17
2023-04-13T21:35:17.489Z,23.25
2023-04-13T21:37:44.179Z,24.73
2023-04-13T21:40:13.215Z,23.15
2023-04-13T21:42:40.788Z,22.83
2023-04-13T21:45:09.251Z,23.88
2023-04-13T21:47:38.058Z,23.45
2023-04-13T21:50:05.571Z,23.17
2023-04-13T21:52:32.259Z,23.75
2023-04-13T21:55:03.264Z,23.42
2023-04-13T21:57:34.704Z,23.02
2023-04-13T22:00:05.588Z,21.67
2023-04-13T22:02:35.667Z,22.35
2023-04-13T22:05:02.418Z,21.77
2023-04-13T22:07:41.894Z,21.75
2023-04-13T22:10:10.524Z,21.95
2023-04-13T22:12:42.037Z,21.77
2023-04-13T22:15:11.941Z,22.48
2023-04-13T22:17:38.906Z,22.15
2023-04-13T22:20:06.053Z,22.30
2023-04-13T22:22:35.095Z,21.38
2023-04-13T22:25:01.726Z,20.85
2023-04-13T22:27:30.682Z,21.40
2023-04-13T22:29:57.578Z,20.73
2023-04-13T22:32:29.518Z,20.08
2023-04-13T22:34:57.084Z,20.70
2023-04-13T22:37:31.067Z,20.33
2023-04-13T22:40:00.551Z,20.45
2023-04-13T22:42:30.826Z,20.35
2023-04-13T22:44:59.795Z,21.03
2023-04-13T22:47:31.194Z,19.73
2023-04-13T22:50:03.390Z,19.25
2023-04-13T22:52:30.037Z,20.20
2023-04-13T22:54:56.731Z,20.98
2023-04-13T22:57:26.088Z,19.23
2023-04-13T22:59:55.168Z,19.70
2023-04-13T23:02:29.555Z,19.50
2023-04-13T23:05:01.250Z,19.30
2023-04-13T23:07:30.885Z,17.95
2023-04-13T23:09:57.569Z,20.05
2023-04-13T23:12:24.228Z,19.33
2023-04-13T23:14:56.716Z,18.20
2023-04-13T23:17:28.128Z,18.63
2023-04-13T23:19:59.936Z,18.98
2023-04-13T23:22:28.809Z,18.10
2023-04-13T23:24:58.988Z,18.70
2023-04-13T23:27:25.900Z,18.65
2023-04-13T23:29:55.059Z,17.83
2023-04-13T23:32:24.246Z,18.85
2023-04-13T23:34:54.488Z,18.50
2023-04-13T23:37:23.527Z,16.92
2023-04-13T23:39:50.506Z,17.42
2023-04-13T23:42:20.387Z,17.85
2023-04-13T23:44:47.063Z,16.98
2023-04-13T23:47:13.732Z,17.83
2023-04-13T23:49:42.496Z,17.23
2023-04-13T23:52:14.763Z,16.38
2023-04-13T23:54:41.461Z,16.83
2023-04-13T23:57:12.825Z,16.92
2023-04-13T23:59:40.424Z,17.25
